Woodland Hills, California
Current Conditions -  °F | °C
As of 1:51 PM on Friday 31 Oct 2014 (Local Time) from KVNY Reporting Station
Overcast Overcast  
Wind Chill: 67°   Ceiling: 3000
Heat Index: 67°   Visibility: 10mi
Dew Point: 52°   Wind: 6mph
Humidity: 59%   Direction: 180°S
Pressure: 29.89"   Gusts: NA
Location:  34.17°N, 118.6°W
Report Text: KVNY 312051Z 18005KT 10SM OVC030 19/11 A2989 RMK AO2 SLP116 T01940111 58026
Loading
Personal Weather Stations






























Interactive Weather Map
Tropical Storm Tracking
New forecast layout! Learn more

10-Day Weather Forecast

Advertisements
Track Severe Weather on mobile